Time;durP1;ratioP1;P1;durP2;ratioP2;P2;SDS_P1;SDS_P2;PMS_P1;PMS_P2;Temp;Humidity;BMP_temperature;BMP_pressure;BME280_temperature;BME280_humidity;BME280_pressure;Samples;Min_cycle;Max_cycle;Signal;HPM_P1;HPM_P2
2023/07/08 00:00:23;;;;;;;4.40;3.35;;;22.80;94.30;;;;;;4900347;29;20028;-89
2023/07/08 00:02:50;;;;;;;3.42;2.60;;;22.70;94.60;;;;;;4900551;29;20028;-89
2023/07/08 00:05:18;;;;;;;4.28;3.25;;;22.80;94.40;;;;;;4900776;29;20525;-88
2023/07/08 00:07:45;;;;;;;4.53;2.90;;;22.70;94.30;;;;;;4899897;29;20116;-88
2023/07/08 00:10:13;;;;;;;4.78;2.95;;;22.70;94.60;;;;;;4900387;29;20036;-87
2023/07/08 00:12:44;;;;;;;4.18;3.15;;;22.70;94.40;;;;;;4900808;29;20048;-87
2023/07/08 00:15:10;;;;;;;4.47;3.78;;;23.60;94.60;;;;;;4900732;29;20025;-88
2023/07/08 00:17:37;;;;;;;3.33;2.90;;;22.70;94.40;;;;;;4900757;29;20036;-88
2023/07/08 00:20:28;;;;;;;7.07;3.47;;;22.60;94.40;;;;;;4900178;29;20048;-88
2023/07/08 00:22:54;;;;;;;3.35;3.05;;;22.60;94.50;;;;;;4900642;29;20028;-88
2023/07/08 00:25:35;;;;;;;4.22;3.15;;;22.60;94.50;;;;;;4918917;29;20021;-87
2023/07/08 00:28:01;;;;;;;3.20;2.90;;;22.60;94.50;;;;;;4924980;29;20017;-88
2023/07/08 00:30:29;;;;;;;4.15;3.10;;;22.60;94.60;;;;;;4904718;29;20029;-89
2023/07/08 00:32:56;;;;;;;4.72;3.20;;;22.50;94.60;;;;;;4900366;29;20137;-88
2023/07/08 00:35:42;;;;;;;4.25;3.45;;;22.50;94.90;;;;;;4899823;29;20036;-87
2023/07/08 00:38:27;;;;;;;6.20;3.10;;;22.50;94.60;;;;;;4900225;29;20029;-88
2023/07/08 00:41:06;;;;;;;3.20;2.90;;;22.50;94.60;;;;;;4900093;29;20048;-89
2023/07/08 00:43:46;;;;;;;5.93;2.92;;;22.50;94.60;;;;;;4905877;29;20028;-88
2023/07/08 00:46:26;;;;;;;4.30;3.03;;;22.50;94.60;;;;;;4900587;29;20060;-88
2023/07/08 00:48:57;;;;;;;4.63;3.13;;;22.50;94.70;;;;;;4899447;29;20037;-87
2023/07/08 00:51:24;;;;;;;3.40;3.05;;;22.70;94.70;;;;;;4899789;29;20032;-89
2023/07/08 00:53:50;;;;;;;4.38;3.47;;;22.50;94.70;;;;;;4899836;29;20036;-88
2023/07/08 00:56:42;;;;;;;7.40;3.63;;;22.40;94.70;;;;;;4899310;29;20032;-87
2023/07/08 00:59:11;;;;;;;4.38;3.17;;;22.40;94.80;;;;;;4891469;29;20048;-89
2023/07/08 01:01:41;;;;;;;4.80;3.03;;;22.40;94.80;;;;;;4900012;29;20071;-88
2023/07/08 01:04:22;;;;;;;5.25;3.50;;;22.30;94.80;;;;;;4898874;29;20036;-89
2023/07/08 01:06:57;;;;;;;5.10;3.22;;;22.30;94.90;;;;;;4899877;29;20497;-87
2023/07/08 01:09:26;;;;;;;4.15;3.38;;;22.30;95.00;;;;;;4899698;29;20517;-89
2023/07/08 01:11:53;;;;;;;3.75;3.13;;;22.30;95.00;;;;;;4899337;29;20068;-88
2023/07/08 01:14:20;;;;;;;6.10;3.65;;;22.30;95.10;;;;;;4899857;29;20044;-88
2023/07/08 01:16:46;;;;;;;4.53;3.40;;;22.30;95.10;;;;;;4898757;29;20035;-88
2023/07/08 01:19:16;;;;;;;3.53;3.15;;;22.30;95.20;;;;;;4899987;29;20060;-89
2023/07/08 01:21:54;;;;;;;5.28;3.38;;;22.30;95.20;;;;;;4899418;29;20029;-88
2023/07/08 01:24:20;;;;;;;4.82;2.90;;;22.30;95.20;;;;;;4898653;29;20409;-88
2023/07/08 01:26:46;;;;;;;3.22;2.70;;;22.20;95.30;;;;;;4899160;29;20037;-87
2023/07/08 01:29:27;;;;;;;3.25;2.95;;;22.20;95.30;;;;;;4898984;29;20025;-88
2023/07/08 01:31:56;;;;;;;6.47;3.33;;;23.10;95.60;;;;;;4898745;29;20092;-88
2023/07/08 01:34:21;;;;;;;3.78;3.22;;;22.30;95.40;;;;;;4898782;29;20029;-88
2023/07/08 01:37:02;;;;;;;3.13;2.90;;;22.70;95.50;;;;;;4899065;29;20084;-88
2023/07/08 01:39:30;;;;;;;4.30;3.05;;;22.20;95.40;;;;;;4894417;29;20032;-89
2023/07/08 01:41:57;;;;;;;5.13;3.30;;;22.20;95.40;;;;;;4898685;29;20103;-87
2023/07/08 01:44:30;;;;;;;4.75;3.13;;;22.20;95.50;;;;;;4898507;29;20028;-88
2023/07/08 01:47:02;;;;;;;4.57;2.95;;;22.10;95.50;;;;;;4899042;29;20052;-88
2023/07/08 01:49:28;;;;;;;7.93;4.00;;;22.10;95.50;;;;;;4898871;29;20029;-87
2023/07/08 01:51:54;;;;;;;4.85;3.00;;;22.10;95.50;;;;;;4898198;29;20039;-88
2023/07/08 01:54:20;;;;;;;4.10;2.90;;;22.70;95.70;;;;;;4898732;29;20024;-87
2023/07/08 01:56:45;;;;;;;4.72;3.22;;;22.00;95.60;;;;;;4898841;29;20039;-88
2023/07/08 01:59:11;;;;;;;3.50;3.20;;;22.00;95.60;;;;;;4898170;29;20031;-88
2023/07/08 02:01:37;;;;;;;4.28;3.28;;;21.90;95.60;;;;;;4898221;29;20485;-87
2023/07/08 02:04:03;;;;;;;5.05;3.47;;;22.00;95.60;;;;;;4898827;29;20520;-88
2023/07/08 02:06:28;;;;;;;5.70;3.55;;;22.00;95.60;;;;;;4897365;29;20048;-88
2023/07/08 02:08:54;;;;;;;5.13;3.42;;;22.70;95.80;;;;;;4898556;29;20583;-87
2023/07/08 02:11:20;;;;;;;4.10;3.67;;;22.00;95.70;;;;;;4915497;29;20025;-88
2023/07/08 02:13:46;;;;;;;4.35;3.13;;;21.90;95.80;;;;;;4921841;29;20036;-88
2023/07/08 02:16:11;;;;;;;5.32;3.88;;;21.90;96.10;;;;;;4903373;29;20108;-88
2023/07/08 02:18:37;;;;;;;4.10;3.33;;;21.70;95.90;;;;;;4898783;29;20549;-88
2023/07/08 02:21:02;;;;;;;7.80;3.45;;;21.70;96.00;;;;;;4897667;29;20485;-87
2023/07/08 02:23:28;;;;;;;3.90;3.53;;;21.80;96.10;;;;;;4898445;29;20032;-89
2023/07/08 02:25:55;;;;;;;3.72;3.40;;;21.80;96.10;;;;;;4898254;29;20029;-88
2023/07/08 02:28:21;;;;;;;5.43;3.67;;;21.70;96.10;;;;;;4898038;29;20037;-88
2023/07/08 02:30:47;;;;;;;3.55;3.25;;;22.40;96.30;;;;;;4898224;29;20028;-88
2023/07/08 02:33:14;;;;;;;6.30;4.05;;;21.90;96.20;;;;;;4903442;29;20071;-88
2023/07/08 02:35:40;;;;;;;3.47;2.85;;;21.70;96.20;;;;;;4898341;29;20381;-87
2023/07/08 02:38:05;;;;;;;4.97;3.45;;;22.60;96.70;;;;;;4898246;29;20029;-89
2023/07/08 02:40:31;;;;;;;4.90;3.60;;;21.70;96.20;;;;;;4897256;29;20033;-89
2023/07/08 02:42:56;;;;;;;4.18;3.83;;;22.00;96.30;;;;;;4897905;29;20028;-87
2023/07/08 02:45:22;;;;;;;5.20;3.60;;;21.70;96.30;;;;;;4898304;29;20076;-87
2023/07/08 02:47:53;;;;;;;5.53;3.42;;;21.70;96.30;;;;;;4897075;29;20659;-88
2023/07/08 02:50:19;;;;;;;6.65;3.80;;;21.70;96.30;;;;;;4897924;29;20036;-87
2023/07/08 02:52:45;;;;;;;6.13;3.13;;;22.30;96.50;;;;;;4897644;29;20123;-88
2023/07/08 02:55:10;;;;;;;4.38;3.75;;;21.70;96.30;;;;;;4896932;29;20080;-88
2023/07/08 02:57:36;;;;;;;3.92;3.55;;;21.50;96.30;;;;;;4897992;29;20113;-87
2023/07/08 03:00:04;;;;;;;5.13;4.05;;;21.60;96.40;;;;;;4897681;29;20503;-87
2023/07/08 03:02:29;;;;;;;3.95;3.55;;;21.60;96.40;;;;;;4897513;29;20068;-87
2023/07/08 03:04:58;;;;;;;6.45;3.35;;;21.50;96.50;;;;;;4897373;29;20052;-87
2023/07/08 03:07:24;;;;;;;4.00;3.70;;;21.50;96.60;;;;;;4897695;29;20123;-88
2023/07/08 03:09:50;;;;;;;4.13;3.78;;;21.50;96.60;;;;;;4897002;29;20112;-86
2023/07/08 03:12:15;;;;;;;4.22;3.25;;;21.40;96.60;;;;;;4897832;29;20048;-87
2023/07/08 03:14:41;;;;;;;4.30;3.35;;;21.50;96.70;;;;;;4897517;29;20029;-87
2023/07/08 03:17:06;;;;;;;4.32;3.35;;;21.40;96.70;;;;;;4897072;29;20037;-88
2023/07/08 03:19:32;;;;;;;4.05;3.05;;;21.40;96.70;;;;;;4897782;29;20020;-87
2023/07/08 03:21:58;;;;;;;3.90;3.05;;;21.40;96.80;;;;;;4897152;29;20107;-88
2023/07/08 03:24:24;;;;;;;3.58;3.28;;;21.40;96.80;;;;;;4896851;29;20080;-87
2023/07/08 03:26:54;;;;;;;4.78;3.97;;;21.50;96.90;;;;;;4897610;29;20029;-87
2023/07/08 03:29:19;;;;;;;4.78;3.10;;;21.60;96.90;;;;;;4897988;29;20029;-88
2023/07/08 03:31:48;;;;;;;3.35;3.08;;;22.50;97.30;;;;;;4896655;29;20095;-87
2023/07/08 03:34:15;;;;;;;3.88;3.58;;;21.70;96.90;;;;;;4897211;29;20478;-88
2023/07/08 03:36:49;;;;;;;4.72;3.80;;;21.60;96.60;;;;;;4897767;29;20025;-89
2023/07/08 03:39:16;;;;;;;3.95;3.30;;;21.70;96.60;;;;;;4897363;29;20035;-88
2023/07/08 03:41:41;;;;;;;3.85;3.22;;;21.70;96.50;;;;;;4897275;29;20385;-88
2023/07/08 03:44:07;;;;;;;6.13;3.40;;;21.70;96.40;;;;;;4897145;29;20029;-88
2023/07/08 03:46:32;;;;;;;3.53;3.22;;;21.70;96.40;;;;;;4897366;29;20025;-89
2023/07/08 03:48:58;;;;;;;5.20;3.97;;;21.80;96.40;;;;;;4897229;29;20032;-88
2023/07/08 03:51:31;;;;;;;8.43;3.25;;;21.70;96.30;;;;;;4897212;29;20028;-89
2023/07/08 03:53:57;;;;;;;5.22;3.17;;;21.80;96.30;;;;;;4897652;29;20560;-88
2023/07/08 03:56:26;;;;;;;6.55;3.10;;;21.70;96.20;;;;;;4909587;29;20044;-87
2023/07/08 03:58:51;;;;;;;3.88;2.95;;;21.80;96.20;;;;;;4921033;29;20013;-89
2023/07/08 04:01:23;;;;;;;3.25;2.90;;;21.80;96.20;;;;;;4917386;29;20410;-88
2023/07/08 04:03:51;;;;;;;2.72;2.50;;;21.80;96.10;;;;;;4897470;29;20050;-87
2023/07/08 04:06:18;;;;;;;8.98;2.97;;;22.00;96.20;;;;;;4898734;29;20059;-89
2023/07/08 04:08:43;;;;;;;3.15;2.85;;;22.00;96.20;;;;;;4901139;29;20461;-89
2023/07/08 04:11:14;;;;;;;7.43;3.50;;;21.80;96.10;;;;;;4900878;29;20039;-88
2023/07/08 04:13:40;;;;;;;7.07;2.95;;;22.10;96.20;;;;;;4900993;29;20120;-88
2023/07/08 04:16:07;;;;;;;3.50;3.20;;;21.80;96.20;;;;;;4902950;29;20115;-87
2023/07/08 04:18:33;;;;;;;4.10;3.10;;;21.70;96.10;;;;;;4905012;29;20080;-85
2023/07/08 04:20:58;;;;;;;4.72;3.30;;;21.80;96.20;;;;;;4906123;29;20032;-88
2023/07/08 04:23:25;;;;;;;6.65;3.55;;;21.90;96.20;;;;;;4903840;29;20032;-87
2023/07/08 04:25:53;;;;;;;3.42;3.13;;;21.80;96.30;;;;;;4900296;29;20025;-88
2023/07/08 04:28:19;;;;;;;3.42;2.97;;;21.80;96.30;;;;;;4899748;29;20028;-87
2023/07/08 04:30:45;;;;;;;5.72;3.53;;;21.80;96.60;;;;;;4900644;29;20156;-87
2023/07/08 04:33:13;;;;;;;3.85;3.15;;;21.80;96.40;;;;;;4899999;29;20033;-87
2023/07/08 04:35:40;;;;;;;5.65;3.53;;;21.70;96.50;;;;;;4913344;29;20025;-88
2023/07/08 04:38:14;;;;;;;3.92;3.03;;;21.70;96.50;;;;;;4918982;29;20032;-88
2023/07/08 04:40:39;;;;;;;3.35;2.80;;;22.10;96.70;;;;;;4918429;29;20083;-88
2023/07/08 04:43:11;;;;;;;6.50;3.75;;;21.60;96.80;;;;;;4918557;29;20036;-87
2023/07/08 04:45:39;;;;;;;5.70;3.28;;;21.60;96.80;;;;;;4919101;29;20063;-87
2023/07/08 04:48:12;;;;;;;4.50;3.17;;;21.60;96.90;;;;;;4901700;29;20176;-85
2023/07/08 04:50:42;;;;;;;3.58;3.28;;;21.60;96.90;;;;;;4899998;29;20107;-88
2023/07/08 04:53:08;;;;;;;3.33;3.03;;;21.70;97.00;;;;;;4898162;29;20048;-92
2023/07/08 04:55:42;;;;;;;5.68;3.45;;;21.70;96.90;;;;;;4900897;29;20036;-91
2023/07/08 04:58:07;;;;;;;6.72;3.85;;;21.70;97.00;;;;;;4882387;29;20041;-90
2023/07/08 05:00:33;;;;;;;3.67;2.97;;;21.70;96.90;;;;;;4897607;29;20031;-89
2023/07/08 05:02:59;;;;;;;3.78;3.10;;;21.70;97.00;;;;;;4896656;29;20037;-92
2023/07/08 05:05:36;;;;;;;6.68;3.50;;;22.70;97.20;;;;;;4886850;29;20080;-91
2023/07/08 05:08:02;;;;;;;3.17;2.95;;;21.70;97.00;;;;;;4891622;29;20056;-90
2023/07/08 05:10:28;;;;;;;3.88;3.00;;;21.70;97.00;;;;;;4890512;29;20050;-90
2023/07/08 05:12:54;;;;;;;7.53;3.22;;;21.70;97.10;;;;;;4890901;29;20032;-90
2023/07/08 05:15:36;;;;;;;4.05;3.28;;;21.70;97.30;;;;;;4883818;29;20032;-90
2023/07/08 05:18:02;;;;;;;5.75;3.03;;;21.70;97.30;;;;;;4888270;29;20033;-90
2023/07/08 05:20:28;;;;;;;4.50;3.40;;;21.60;97.40;;;;;;4889567;29;20033;-92
2023/07/08 05:22:54;;;;;;;3.65;3.35;;;21.80;97.70;;;;;;4893706;29;20045;-91
2023/07/08 05:28:04;;;;;;;5.93;3.05;;;21.50;97.70;;;;;;4887068;29;20484;-90
2023/07/08 05:30:30;;;;;;;10.95;3.45;;;21.60;98.00;;;;;;4885896;29;20032;-91
2023/07/08 05:32:55;;;;;;;4.40;3.08;;;21.80;98.20;;;;;;4881116;29;20470;-90
2023/07/08 05:35:30;;;;;;;5.20;3.40;;;21.60;98.20;;;;;;4894498;29;20025;-92
2023/07/08 05:37:56;;;;;;;3.92;2.90;;;21.60;98.20;;;;;;4881905;29;20039;-88
2023/07/08 05:40:21;;;;;;;4.78;3.67;;;21.70;98.20;;;;;;4897050;29;20025;-92
2023/07/08 05:42:47;;;;;;;3.30;3.00;;;21.80;98.20;;;;;;4909305;29;20025;-93
2023/07/08 05:45:27;;;;;;;4.97;3.30;;;21.70;98.20;;;;;;4909234;29;20027;-91
2023/07/08 05:47:53;;;;;;;8.93;2.95;;;21.70;98.20;;;;;;4901711;29;20028;-91
2023/07/08 05:50:19;;;;;;;5.97;2.97;;;21.70;98.20;;;;;;4894786;29;20579;-91
2023/07/08 05:52:59;;;;;;;3.40;3.10;;;21.60;98.20;;;;;;4884463;29;20048;-92
2023/07/08 05:55:25;;;;;;;5.70;3.53;;;21.60;98.30;;;;;;4883044;29;20029;-90
2023/07/08 05:57:50;;;;;;;3.45;2.92;;;22.30;98.60;;;;;;4880820;29;20037;-92
2023/07/08 06:00:16;;;;;;;4.78;3.15;;;21.50;98.50;;;;;;4881220;29;20029;-92
2023/07/08 06:02:51;;;;;;;3.08;2.78;;;21.60;98.50;;;;;;4874081;29;20025;-91
2023/07/08 06:05:17;;;;;;;5.18;3.00;;;21.60;98.50;;;;;;4880844;29;20029;-91
2023/07/08 06:07:51;;;;;;;5.57;3.03;;;21.60;98.40;;;;;;4881707;29;20045;-94
2023/07/08 06:10:16;;;;;;;4.10;3.42;;;21.70;98.50;;;;;;4881768;29;20145;-91
2023/07/08 06:12:42;;;;;;;3.38;3.08;;;21.70;98.50;;;;;;4894309;29;20032;-91
2023/07/08 06:15:08;;;;;;;4.35;3.20;;;21.80;98.50;;;;;;4888152;29;20473;-91
2023/07/08 06:17:34;;;;;;;5.30;3.05;;;21.80;98.60;;;;;;4885782;29;20057;-91
2023/07/08 06:20:47;;;;;;;4.18;3.28;;;22.30;98.70;;;;;;4847241;29;20393;-90
2023/07/08 06:23:12;;;;;;;3.85;3.30;;;21.90;98.50;;;;;;4876367;29;20044;-91
2023/07/08 06:25:38;;;;;;;4.55;3.47;;;22.30;98.50;;;;;;4881376;29;20025;-91
2023/07/08 06:28:20;;;;;;;6.22;3.10;;;21.80;98.40;;;;;;4880315;29;20080;-90
2023/07/08 06:30:46;;;;;;;4.55;3.38;;;21.90;98.50;;;;;;4889568;29;20029;-87
2023/07/08 06:33:12;;;;;;;4.55;3.28;;;21.90;98.50;;;;;;4895492;29;20037;-88
2023/07/08 06:35:39;;;;;;;4.68;3.50;;;22.80;98.90;;;;;;4896774;29;20040;-87
2023/07/08 06:38:13;;;;;;;3.15;2.85;;;21.90;98.80;;;;;;4895450;29;20040;-86
2023/07/08 06:40:38;;;;;;;4.28;3.78;;;21.90;98.70;;;;;;4896109;29;20029;-87
2023/07/08 06:43:05;;;;;;;4.38;3.30;;;21.90;99.00;;;;;;4896288;29;20025;-87
2023/07/08 06:45:48;;;;;;;3.30;3.00;;;21.90;98.80;;;;;;4896452;29;20036;-86
2023/07/08 06:48:13;;;;;;;4.97;3.83;;;21.90;98.90;;;;;;4895723;29;20031;-87
2023/07/08 06:50:43;;;;;;;6.90;4.00;;;22.10;99.00;;;;;;4896477;29;20032;-89
2023/07/08 06:53:09;;;;;;;3.73;3.40;;;21.90;99.10;;;;;;4896079;29;20124;-86
2023/07/08 06:55:50;;;;;;;7.10;3.58;;;21.90;99.30;;;;;;4895687;29;20035;-87
2023/07/08 06:58:16;;;;;;;4.47;3.28;;;21.90;99.40;;;;;;4896563;29;20024;-88
2023/07/08 07:00:43;;;;;;;3.72;3.42;;;21.90;99.60;;;;;;4895586;29;20021;-88
2023/07/08 07:03:09;;;;;;;3.65;3.15;;;22.00;99.60;;;;;;4896146;29;20036;-88
2023/07/08 07:05:35;;;;;;;5.70;3.80;;;22.10;99.70;;;;;;4896507;29;20051;-88
2023/07/08 07:08:10;;;;;;;6.13;3.03;;;22.10;99.90;;;;;;4895138;29;20156;-88
2023/07/08 07:10:35;;;;;;;6.35;3.30;;;22.10;99.70;;;;;;4896571;29;20040;-88
2023/07/08 07:13:01;;;;;;;4.53;3.13;;;22.10;99.80;;;;;;4896616;29;20047;-88
2023/07/08 07:15:27;;;;;;;4.90;4.07;;;22.10;99.70;;;;;;4895775;29;20033;-88
2023/07/08 07:17:53;;;;;;;3.80;3.42;;;22.10;99.40;;;;;;4896746;29;20116;-88
2023/07/08 07:20:18;;;;;;;7.28;4.32;;;22.10;99.30;;;;;;4896291;29;20028;-87
2023/07/08 07:22:44;;;;;;;7.53;4.13;;;22.20;99.40;;;;;;4895545;29;20032;-87
2023/07/08 07:25:10;;;;;;;5.70;3.83;;;22.20;99.50;;;;;;4897019;29;20036;-87
2023/07/08 07:27:35;;;;;;;5.38;3.55;;;22.10;99.40;;;;;;4903985;29;20017;-87
2023/07/08 07:30:02;;;;;;;5.95;3.42;;;22.10;99.50;;;;;;4915520;29;20042;-85
2023/07/08 07:32:29;;;;;;;8.52;4.32;;;22.20;99.10;;;;;;4898723;29;20359;-86
2023/07/08 07:34:55;;;;;;;7.80;4.00;;;22.30;99.10;;;;;;4892054;29;20072;-86
2023/07/08 07:37:21;;;;;;;7.38;4.13;;;22.30;99.20;;;;;;4880133;29;20032;-87
2023/07/08 07:39:47;;;;;;;3.83;3.50;;;22.20;99.10;;;;;;4871052;29;20086;-88
2023/07/08 07:42:15;;;;;;;4.88;3.20;;;22.20;99.30;;;;;;4896856;29;20040;-87
2023/07/08 07:44:40;;;;;;;4.43;4.03;;;22.30;99.30;;;;;;4900780;29;20024;-87
2023/07/08 07:47:07;;;;;;;4.43;3.85;;;22.30;99.30;;;;;;4900946;29;20111;-86
2023/07/08 07:49:33;;;;;;;4.57;3.90;;;22.30;99.30;;;;;;4901378;29;20072;-88
2023/07/08 07:51:59;;;;;;;3.80;3.45;;;22.40;99.40;;;;;;4900296;29;20512;-88
2023/07/08 07:54:25;;;;;;;5.05;4.47;;;22.40;99.60;;;;;;4901739;29;20024;-86
2023/07/08 07:56:51;;;;;;;8.23;4.22;;;22.70;99.60;;;;;;4900809;29;20025;-87
2023/07/08 07:59:17;;;;;;;7.60;4.10;;;22.40;99.40;;;;;;4894561;29;20028;-87
2023/07/08 08:01:43;;;;;;;4.88;4.25;;;22.40;99.60;;;;;;4891879;29;20036;-88
2023/07/08 08:04:10;;;;;;;4.85;4.35;;;22.40;99.70;;;;;;4886446;29;20485;-88
2023/07/08 08:06:35;;;;;;;8.07;4.15;;;22.40;99.70;;;;;;4882047;29;20052;-88
2023/07/08 08:09:02;;;;;;;4.93;4.03;;;22.50;99.90;;;;;;4882738;29;20029;-92
2023/07/08 08:11:27;;;;;;;6.30;3.85;;;22.90;99.90;;;;;;4883987;29;20115;-89
2023/07/08 08:13:53;;;;;;;7.75;4.38;;;22.40;99.90;;;;;;4898594;29;20116;-89
2023/07/08 08:16:20;;;;;;;4.57;3.90;;;22.50;99.90;;;;;;4899695;29;20033;-89
2023/07/08 08:18:45;;;;;;;5.18;4.10;;;22.50;99.90;;;;;;4899190;29;20056;-89
2023/07/08 08:21:11;;;;;;;9.48;4.85;;;22.50;99.90;;;;;;4899416;29;20052;-90
2023/07/08 08:23:36;;;;;;;4.30;3.90;;;22.60;99.90;;;;;;4899707;29;20033;-90
2023/07/08 08:26:02;;;;;;;4.68;4.25;;;22.60;99.90;;;;;;4899661;29;20047;-87
2023/07/08 08:28:28;;;;;;;8.93;4.40;;;22.60;99.90;;;;;;4898966;29;20039;-87
2023/07/08 08:30:54;;;;;;;8.55;4.40;;;22.60;99.90;;;;;;4898952;29;20035;-86
2023/07/08 08:33:20;;;;;;;9.13;5.15;;;22.60;99.90;;;;;;4898142;29;20040;-88
2023/07/08 08:35:45;;;;;;;7.70;4.75;;;22.60;99.90;;;;;;4899147;29;20091;-91
2023/07/08 08:38:11;;;;;;;6.30;4.15;;;22.70;99.90;;;;;;4899542;29;20477;-89
2023/07/08 08:40:40;;;;;;;7.25;4.10;;;22.70;99.90;;;;;;4897043;29;20543;-89
2023/07/08 08:43:11;;;;;;;7.28;4.25;;;22.70;99.90;;;;;;4898791;29;20036;-90
2023/07/08 08:45:50;;;;;;;6.65;4.80;;;22.70;99.90;;;;;;4895820;29;20040;-90
2023/07/08 08:48:19;;;;;;;5.53;4.18;;;22.70;99.90;;;;;;4899365;29;20100;-90
2023/07/08 08:51:12;;;;;;;4.60;4.20;;;22.80;99.90;;;;;;4897122;29;20124;-85
2023/07/08 08:53:38;;;;;;;4.63;4.22;;;22.80;99.90;;;;;;4898128;29;20364;-88
2023/07/08 08:56:21;;;;;;;6.15;5.55;;;22.80;99.90;;;;;;4899162;29;20426;-88
2023/07/08 08:59:11;;;;;;;7.68;5.18;;;22.80;99.90;;;;;;4876468;29;20029;-89
2023/07/08 09:01:37;;;;;;;7.78;4.78;;;22.90;99.90;;;;;;4902441;29;20032;-91
2023/07/08 09:04:11;;;;;;;8.60;4.35;;;22.80;99.90;;;;;;4900033;29;20251;-90
2023/07/08 09:06:38;;;;;;;7.28;5.43;;;22.90;99.90;;;;;;4884744;29;20048;-88
2023/07/08 09:09:17;;;;;;;5.40;4.40;;;22.90;99.90;;;;;;4880772;29;20097;-88
2023/07/08 09:11:52;;;;;;;10.25;4.72;;;22.90;99.90;;;;;;4880656;29;20071;-88
2023/07/08 09:14:27;;;;;;;8.38;5.18;;;22.90;99.90;;;;;;4894009;29;20275;-88
2023/07/08 09:17:14;;;;;;;7.78;5.97;;;23.00;99.90;;;;;;4903542;29;20024;-87
2023/07/08 09:20:20;;;;;;;6.57;5.07;;;23.00;99.90;;;;;;4885378;29;20191;-87
2023/07/08 09:23:20;;;;;;;7.90;5.50;;;23.10;99.90;;;;;;4878035;29;20053;-88
2023/07/08 09:25:49;;;;;;;;;;;23.10;99.50;;;;;;4878923;29;20474;-88
2023/07/08 09:28:14;;;;;;;8.32;5.93;;;23.10;99.60;;;;;;4878902;29;19923;-89
2023/07/08 09:30:40;;;;;;;6.93;5.13;;;23.20;99.90;;;;;;4880863;29;20033;-87
2023/07/08 09:33:08;;;;;;;7.25;5.57;;;23.20;99.90;;;;;;4890560;29;20124;-89
2023/07/08 09:35:48;;;;;;;11.82;5.57;;;23.10;99.90;;;;;;4898666;29;20473;-86
2023/07/08 09:38:21;;;;;;;8.60;5.93;;;23.20;99.90;;;;;;4899709;29;20037;-86
2023/07/08 09:40:49;;;;;;;5.20;4.18;;;23.30;99.90;;;;;;4898816;29;20402;-83
2023/07/08 09:43:14;;;;;;;5.90;5.40;;;23.30;99.80;;;;;;4898426;29;20024;-84
2023/07/08 09:45:42;;;;;;;7.03;5.22;;;23.20;99.90;;;;;;4899092;29;20032;-83
2023/07/08 09:48:21;;;;;;;6.47;5.55;;;23.30;99.90;;;;;;4898658;29;20029;-84
2023/07/08 09:50:51;;;;;;;7.25;6.05;;;23.40;99.80;;;;;;4897526;29;20080;-83
2023/07/08 09:53:16;;;;;;;10.10;6.15;;;23.30;99.60;;;;;;4898754;29;20119;-85
2023/07/08 09:55:42;;;;;;;6.65;5.65;;;23.50;99.30;;;;;;4898715;29;20108;-85
2023/07/08 09:58:14;;;;;;;6.35;5.22;;;23.40;99.30;;;;;;4897436;29;20037;-84
2023/07/08 10:00:41;;;;;;;6.85;6.15;;;23.40;99.80;;;;;;4899025;29;20025;-87
2023/07/08 10:03:21;;;;;;;7.25;6.15;;;23.40;99.90;;;;;;4897907;29;20481;-87
2023/07/08 10:05:48;;;;;;;7.88;5.25;;;23.50;99.90;;;;;;4890687;29;20029;-87
2023/07/08 10:08:19;;;;;;;11.05;5.97;;;23.50;99.90;;;;;;4879770;29;20070;-88
2023/07/08 10:10:48;;;;;;;9.48;5.72;;;23.40;99.90;;;;;;4880762;29;20032;-89
2023/07/08 10:13:26;;;;;;;7.43;6.03;;;23.60;99.90;;;;;;4880615;29;20037;-89
2023/07/08 10:16:00;;;;;;;10.68;5.97;;;23.50;99.90;;;;;;4882225;29;20029;-94
2023/07/08 10:18:29;;;;;;;5.53;4.93;;;23.60;99.90;;;;;;4882116;29;20033;-93
2023/07/08 10:21:23;;;;;;;7.35;6.50;;;23.60;99.90;;;;;;4887497;29;20021;-94
2023/07/08 10:24:26;;;;;;;7.75;5.68;;;23.60;99.70;;;;;;4881106;29;20040;-93
2023/07/08 10:27:19;;;;;;;11.85;6.20;;;23.60;99.90;;;;;;4894387;29;20369;-89
2023/07/08 10:30:22;;;;;;;7.65;5.60;;;23.70;99.70;;;;;;4900943;29;20043;-93
2023/07/08 10:32:58;;;;;;;8.52;5.97;;;23.80;99.50;;;;;;4898865;29;20041;-92
2023/07/08 10:35:26;;;;;;;6.85;5.80;;;23.90;99.60;;;;;;4888139;29;20058;-91
2023/07/08 10:38:00;;;;;;;7.80;6.10;;;24.00;99.90;;;;;;4888935;29;20029;-90
2023/07/08 10:40:58;;;;;;;7.85;5.72;;;24.00;99.60;;;;;;4901221;29;20405;-92
2023/07/08 10:43:45;;;;;;;8.27;5.88;;;24.10;99.60;;;;;;4889813;29;20099;-92
2023/07/08 10:46:20;;;;;;;8.02;6.13;;;24.10;99.60;;;;;;4898994;29;20092;-91
2023/07/08 10:48:57;;;;;;;6.30;5.72;;;24.10;99.90;;;;;;4885076;29;20049;-92
2023/07/08 10:51:40;;;;;;;7.18;6.18;;;24.10;99.90;;;;;;4900288;29;20033;-90
2023/07/08 10:54:25;;;;;;;9.57;6.50;;;24.10;99.80;;;;;;4899675;29;20048;-91
2023/07/08 10:57:17;;;;;;;7.47;6.57;;;24.10;99.90;;;;;;4896108;29;20025;-92
2023/07/08 10:59:49;;;;;;;8.38;5.93;;;24.10;99.90;;;;;;4896204;29;20057;-94
2023/07/08 11:02:46;;;;;;;7.47;6.25;;;24.10;99.80;;;;;;4910614;29;20026;-93
2023/07/08 11:05:27;;;;;;;10.05;6.53;;;24.10;99.50;;;;;;4923124;23;20060;-92
2023/07/08 11:07:59;;;;;;;11.52;6.05;;;24.20;99.80;;;;;;4885300;29;20135;-95
2023/07/08 11:10:55;;;;;;;6.57;5.97;;;24.20;99.90;;;;;;4881998;29;20036;-90
2023/07/08 11:13:24;;;;;;;10.77;5.68;;;24.20;99.90;;;;;;4881700;29;20069;-91
2023/07/08 11:16:03;;;;;;;6.25;5.65;;;24.30;99.90;;;;;;4881350;29;20081;-91
2023/07/08 11:18:36;;;;;;;8.57;6.50;;;24.30;99.90;;;;;;4881912;29;20040;-89
2023/07/08 11:21:09;;;;;;;8.43;6.00;;;24.40;99.90;;;;;;4883082;29;20028;-88
2023/07/08 11:23:50;;;;;;;10.55;5.70;;;24.30;99.90;;;;;;4883167;29;20059;-87
2023/07/08 11:26:24;;;;;;;8.50;7.15;;;24.40;99.90;;;;;;4865057;29;20030;-86
2023/07/08 11:28:53;;;;;;;9.00;6.05;;;24.40;99.70;;;;;;4864672;29;20105;-91
2023/07/08 11:31:20;;;;;;;14.45;6.05;;;24.40;99.90;;;;;;4864833;29;20069;-90
2023/07/08 11:33:46;;;;;;;8.20;6.13;;;24.50;99.50;;;;;;4864575;29;20478;-89
2023/07/08 11:36:14;;;;;;;9.15;6.53;;;24.40;99.10;;;;;;4864466;29;20025;-89
2023/07/08 11:38:49;;;;;;;9.13;6.38;;;24.50;99.30;;;;;;4864458;29;20026;-89
2023/07/08 11:41:18;;;;;;;7.20;5.85;;;24.50;99.50;;;;;;4864699;29;20029;-89
2023/07/08 11:43:57;;;;;;;8.73;6.38;;;24.50;99.90;;;;;;4865028;29;20026;-89
2023/07/08 11:46:28;;;;;;;8.32;6.38;;;24.40;99.30;;;;;;4864309;29;20120;-88
2023/07/08 11:48:55;;;;;;;8.27;5.55;;;24.40;99.70;;;;;;4864342;29;20037;-90
2023/07/08 11:51:28;;;;;;;9.43;6.20;;;24.50;99.90;;;;;;4863149;29;20065;-90
2023/07/08 11:54:13;;;;;;;8.00;7.30;;;24.60;99.40;;;;;;4864999;29;20034;-88
2023/07/08 11:57:06;;;;;;;10.10;7.63;;;24.60;99.40;;;;;;4863689;29;20038;-89
2023/07/08 11:59:40;;;;;;;6.65;6.05;;;24.60;99.70;;;;;;4881214;29;20037;-91
2023/07/08 12:02:15;;;;;;;7.53;6.30;;;24.70;99.60;;;;;;4882437;29;20478;-86
2023/07/08 12:05:02;;;;;;;9.77;6.60;;;24.60;98.90;;;;;;4881870;29;20434;-93
2023/07/08 12:07:41;;;;;;;15.95;6.30;;;24.70;99.10;;;;;;4880394;29;20092;-87
2023/07/08 12:10:27;;;;;;;11.68;6.38;;;24.70;99.00;;;;;;4871099;29;20030;-87
2023/07/08 12:12:52;;;;;;;9.40;6.35;;;24.90;98.50;;;;;;4867076;29;20041;-88
2023/07/08 12:15:24;;;;;;;11.32;6.50;;;25.00;98.20;;;;;;4878873;29;20028;-89
2023/07/08 12:17:55;;;;;;;8.05;5.93;;;25.00;98.50;;;;;;4871633;29;20540;-89
2023/07/08 12:20:24;;;;;;;6.68;6.07;;;25.00;98.40;;;;;;4880663;29;20051;-88
2023/07/08 12:22:50;;;;;;;7.10;5.80;;;25.00;98.50;;;;;;4880024;29;20542;-89
2023/07/08 12:25:18;;;;;;;6.55;5.95;;;25.00;98.40;;;;;;4879929;29;20075;-88
2023/07/08 12:27:45;;;;;;;5.57;5.07;;;25.10;98.20;;;;;;4880627;29;20143;-88
2023/07/08 12:30:12;;;;;;;6.97;5.32;;;25.20;98.10;;;;;;4872691;29;20470;-88
2023/07/08 12:32:42;;;;;;;10.48;6.15;;;25.20;98.40;;;;;;4877831;29;20118;-89
2023/07/08 12:35:23;;;;;;;7.85;7.07;;;25.30;98.30;;;;;;4881615;29;20541;-88
2023/07/08 12:37:50;;;;;;;6.22;5.72;;;25.30;98.10;;;;;;4880598;29;20068;-87
2023/07/08 12:40:16;;;;;;;6.68;6.03;;;25.40;98.20;;;;;;4880903;29;20049;-87
2023/07/08 12:42:41;;;;;;;6.40;5.80;;;25.50;97.70;;;;;;4881024;29;20060;-89
2023/07/08 12:45:21;;;;;;;6.82;6.07;;;25.60;97.60;;;;;;4880932;29;20033;-89
2023/07/08 12:47:48;;;;;;;6.38;5.38;;;25.60;97.50;;;;;;4882973;29;20131;-86
2023/07/08 12:50:14;;;;;;;6.75;5.97;;;25.60;97.90;;;;;;4902721;29;20009;-86
2023/07/08 12:52:40;;;;;;;6.40;5.80;;;25.60;97.40;;;;;;4889327;29;20041;-86
2023/07/08 12:55:10;;;;;;;10.15;6.07;;;25.60;96.80;;;;;;4880756;29;20021;-85
2023/07/08 12:57:36;;;;;;;9.15;6.13;;;25.60;96.20;;;;;;4880779;29;20033;-86
2023/07/08 13:00:03;;;;;;;6.88;6.18;;;25.70;96.30;;;;;;4879273;29;20029;-86
2023/07/08 13:02:31;;;;;;;7.88;5.40;;;25.80;95.70;;;;;;4862716;29;20033;-86
2023/07/08 13:05:02;;;;;;;6.05;5.40;;;25.90;95.90;;;;;;4873633;29;20051;-88